Lynradar: storm image Ingen tordenbyger registrert..



Vårt webkamera mer informasjon My webcam


Kamera på Foreneset mer informasjon webcam on foreneset


Lynradar mer informasjon blitzortung!


Nedbørsradar mer informasjon rain snow radar


Besøk vår andre værside:

Alternativ webside

iphone versjon

Foreneset
verstasjon



Ikke nødvendig med spesiell oppmerksomhet.    Det er ingen advarsler

Nære METAR rapporter

  
ENHD - Haugesund/Karmoy, Norway
Avstand fra stasjon: V 50km
oppdatert: 24-06-2017 12:20
Delvis Skyet
Delvis Skyet  
 Wind from VSV
Vind: VSV 13 km/h
Temperatur:  14°C
Duggpunkt:  9°C
Fuktighet:  72%
Barometer:  1000 hPa
Skyer:  Delvis Skyet
Sikt:  10 km
Skydetaljer:  Få Skyer 732 m
Delvis Skyet 1311 m
2017/06/24 10:20 ENHD 241020Z 25007KT 9999 FEW024 SCT043 14/09 Q1000
ENZV - Stavanger/Sola(A, Norway
Avstand fra stasjon: SSV 58km
oppdatert: 24-06-2017 12:20
For det meste skyet
For det meste skyet  
 Wind from SV
Vind: SV 6 km/h
Temperatur:  13°C
Duggpunkt:  8°C
Fuktighet:  72%
Barometer:  1001 hPa
Skyer:  For det meste skyet
Sikt:  10 km
Skydetaljer:  Få Skyer 823 m
For det meste skyet 1798 m
2017/06/24 10:20 ENZV 241020Z 22003KT 170V260 9999 FEW027 BKN059 13/08 Q1001 NOSIG
ENBR - Bergen/Flesland, Norway
Avstand fra stasjon: NNV 118km
oppdatert: 24-06-2017 12:20
Delvis Skyet
Delvis Skyet  
 Wind from SSV
Vind: SSV 11 km/h
Temperatur:  13°C
Duggpunkt:  9°C
Fuktighet:  77%
Barometer:  999 hPa
Skyer:  Delvis Skyet
Sikt:  10 km
Skydetaljer:  Få Skyer 457 m
Delvis Skyet 762 m
Delvis Skyet 1676 m
2017/06/24 10:20 ENBR 241020Z 21006KT 180V240 9999 FEW015 SCT025TCU SCT055 13/09 Q0999 TEMPO SHRA BKN014CB RMK WIND 1200FT 24010KT
ENCN - Kristiansand/Kje, Norway
Avstand fra stasjon: SØ 169km
oppdatert: 24-06-2017 12:20
Delvis Skyet
Delvis Skyet  
 Wind from S
Vind: S 28 km/h
Temperatur:  16°C
Duggpunkt:  11°C
Fuktighet:  72%
Barometer:  1000 hPa
Skyer:  Delvis Skyet
Sikt:  10 km
Skydetaljer:  Få Skyer 1219 m
Delvis Skyet 1219 m
2017/06/24 10:20 ENCN 241020Z 19015KT 9999 FEW040TCU SCT040 16/11 Q1000
ENQA - Troll-A Heli, Norway
Avstand fra stasjon: NV 198km
oppdatert: 24-06-2017 12:20
For det meste skyet
For det meste skyet  
 Wind from SV
Vind: SV 43 km/h
Temperatur:  12°C
Duggpunkt:  7°C
Fuktighet:  72%
Barometer:  998 hPa
Skyer:  For det meste skyet
Sikt:  16 miles
Skydetaljer:  Få Skyer 732 m
Delvis Skyet 2682 m
For det meste skyet 7315 m
2017/06/24 10:20 ENQA 241020Z AUTO 23023KT 9999NDV FEW024/// SCT088/// BKN240/// 12/07 Q0998 W10/S5
ENOA - Oseberg, Norway
Avstand fra stasjon: NV 224km
oppdatert: 24-06-2017 11:50
Få Skyer
Få Skyer  
 Wind from SV
Vind: SV 39 km/h
Temperatur:  11°C
Duggpunkt:  8°C
Fuktighet:  82%
Barometer:  997 hPa
Skyer:  Få Skyer
Sikt:  10 km
Skydetaljer:  Få Skyer 610 m
2017/06/24 09:50 ENOA 240950Z 23021KT 9999 FEW020 11/08 Q0997 W///S4
ENFG - Fagernes/Leirin, Norway
Avstand fra stasjon: NØ 257km
oppdatert: 25-04-2017 17:50
Ikke oppdatert
Delvis Skyet
Delvis Skyet  
 Wind from NNØ
Vind: NNØ 26 km/h
Temperatur:  -1°C
Wind Chill:  -7°C
Duggpunkt:  -9°C
Fuktighet:  55%
Barometer:  1001 hPa
Skyer:  Delvis Skyet
Sikt:  10 km
Skydetaljer:  Delvis Skyet 1219 m
2017/04/25 15:50 ENFG 251550Z 02014KT 9999 SCT040 M01/M09 Q1001
ENSL - Sleipner A Platf, Norway
Avstand fra stasjon: VSV 264km
oppdatert: 24-06-2017 12:20
Få Skyer
Få Skyer  
 Wind from V
Vind: V 52 km/h
Temperatur:  13°C
Duggpunkt:  7°C
Fuktighet:  67%
Barometer:  1001 hPa
Skyer:  Få Skyer
Sikt:  10 km
Skydetaljer:  Få Skyer 914 m
2017/06/24 10:20 ENSL 241020Z 26028KT 9999 FEW030 13/07 Q1001 W13/S4
ENGC - Gullfax (platfor, Norway
Avstand fra stasjon: NV 294km
oppdatert: 24-06-2017 12:20
For det meste skyet
For det meste skyet  
 Wind from SV
Vind: SV 46 km/h
Temperatur:  11°C
Duggpunkt:  7°C
Fuktighet:  77%
Barometer:  996 hPa
Skyer:  For det meste skyet
Sikt:  10 km
Skydetaljer:  Få Skyer 610 m
Delvis Skyet 1372 m
For det meste skyet 2438 m
2017/06/24 10:20 ENGC 241020Z 23025KT 9999 FEW020 SCT045 BKN080 11/07 Q0996 W10/S5
ENGM - Oslo/Gardermoen, Norway
Avstand fra stasjon: ØNØ 294km
oppdatert: 24-06-2017 12:20
Delvis Skyet
Delvis Skyet  
 Wind from SV
Vind: SV 15 km/h
Temperatur:  16°C
Duggpunkt:  4°C
Fuktighet:  45%
Barometer:  995 hPa
Skyer:  Delvis Skyet
Sikt:  10 km
Skydetaljer:  Få Skyer 1250 m
Delvis Skyet 1585 m
2017/06/24 10:20 ENGM 241020Z 23008KT 200V260 9999 FEW041 SCT052 16/04 Q0995 NOSIG

Script utviklet av  Saratoga-weather.org Tilrettelagt for malen av  Weerstation Leuven

Du finner vår vær info også på:


UK Metoffice

European Weather Network

WeatherCloud

Weather Underground

Utstyr vi bruker:


Værstsjon
Davis VP2

Værprogram
Weather Display

Davis VP2

Weather Display